createdAt,value
2018-09-27T00:01:51.238Z,99540.34
2018-09-27T00:04:20.024Z,99539.75
2018-09-27T00:06:49.114Z,99540.28
2018-09-27T00:09:18.281Z,99539.47
2018-09-27T00:11:47.114Z,99541.84
2018-09-27T00:14:15.797Z,99550.14
2018-09-27T00:16:44.856Z,99554.36
2018-09-27T00:19:13.626Z,99550.02
2018-09-27T00:21:42.593Z,99542.48
2018-09-27T00:24:11.462Z,99546.80
2018-09-27T00:26:40.291Z,99541.70
2018-09-27T00:29:09.174Z,99545.17
2018-09-27T00:31:37.975Z,99531.81
2018-09-27T00:34:06.903Z,99539.45
2018-09-27T00:36:35.633Z,99539.31
2018-09-27T00:39:05.492Z,99539.62
2018-09-27T00:41:34.241Z,99539.72
2018-09-27T00:44:02.910Z,99535.34
2018-09-27T00:46:31.810Z,99542.52
2018-09-27T00:49:00.646Z,99546.98
2018-09-27T00:51:29.405Z,99551.34
2018-09-27T00:53:58.083Z,99543.09
2018-09-27T00:56:27.454Z,99541.30
2018-09-27T00:58:56.166Z,99541.55
2018-09-27T01:01:24.875Z,99537.05
2018-09-27T01:03:53.671Z,99541.08
2018-09-27T01:06:22.498Z,99534.75
2018-09-27T01:08:51.857Z,99531.03
2018-09-27T01:11:20.653Z,99528.35
2018-09-27T01:13:49.468Z,99528.35
2018-09-27T01:16:18.649Z,99526.38
2018-09-27T01:18:47.314Z,99524.22
2018-09-27T01:21:16.293Z,99518.03
2018-09-27T01:23:45.219Z,99511.81
2018-09-27T01:26:14.038Z,99513.16
2018-09-27T01:28:42.951Z,99506.16
2018-09-27T01:31:11.741Z,99505.28
2018-09-27T01:33:40.593Z,99503.47
2018-09-27T01:36:09.403Z,99499.09
2018-09-27T01:38:38.127Z,99509.80
2018-09-27T01:41:07.362Z,99508.39
2018-09-27T01:43:36.338Z,99517.30
2018-09-27T01:46:05.349Z,99510.12
2018-09-27T01:48:34.258Z,99517.66
2018-09-27T01:51:02.998Z,99507.09
2018-09-27T01:53:31.798Z,99504.33
2018-09-27T01:56:00.446Z,99506.48
2018-09-27T01:58:29.220Z,99508.36
2018-09-27T02:00:57.984Z,99507.97
2018-09-27T02:03:26.865Z,99513.05
2018-09-27T02:05:55.980Z,99506.64
2018-09-27T02:08:24.714Z,99506.70
2018-09-27T02:10:53.625Z,99503.56
2018-09-27T02:13:22.329Z,99498.82
2018-09-27T02:15:51.521Z,99498.46
2018-09-27T02:18:20.321Z,99495.08
2018-09-27T02:20:48.994Z,99493.45
2018-09-27T02:23:17.819Z,99485.23
2018-09-27T02:25:46.502Z,99485.73
2018-09-27T02:28:15.260Z,99482.91
2018-09-27T02:30:44.103Z,99485.70
2018-09-27T02:33:12.834Z,99481.22
2018-09-27T02:35:41.513Z,99477.33
2018-09-27T02:38:10.178Z,99474.89
2018-09-27T02:40:39.004Z,99466.66
2018-09-27T02:43:07.913Z,99469.91
2018-09-27T02:45:36.680Z,99468.81
2018-09-27T02:48:05.322Z,99470.73
2018-09-27T02:50:34.071Z,99468.29
2018-09-27T02:53:02.842Z,99454.48
2018-09-27T02:55:31.602Z,99458.22
2018-09-27T02:58:00.352Z,99456.39
2018-09-27T03:00:29.004Z,99456.98
2018-09-27T03:02:57.802Z,99459.42
2018-09-27T03:05:26.562Z,99456.91
2018-09-27T03:07:55.396Z,99461.19
2018-09-27T03:10:24.194Z,99449.00
2018-09-27T03:12:52.955Z,99447.48
2018-09-27T03:15:21.650Z,99449.39
2018-09-27T03:17:50.301Z,99439.15
2018-09-27T03:20:19.146Z,99449.88
2018-09-27T03:22:47.882Z,99454.95
2018-09-27T03:25:16.570Z,99457.28
2018-09-27T03:27:45.411Z,99451.86
2018-09-27T03:30:14.142Z,99449.08
2018-09-27T03:32:42.895Z,99457.24
2018-09-27T03:35:11.650Z,99457.20
2018-09-27T03:37:40.285Z,99453.55
2018-09-27T03:40:09.154Z,99447.55
2018-09-27T03:42:37.878Z,99443.89
2018-09-27T03:45:06.616Z,99434.91
2018-09-27T03:47:35.270Z,99442.54
2018-09-27T03:50:03.958Z,99437.01
2018-09-27T03:52:32.682Z,99442.86
2018-09-27T03:55:01.424Z,99443.92
2018-09-27T03:57:30.212Z,99430.68
2018-09-27T03:59:58.907Z,99424.90
2018-09-27T04:02:27.577Z,99428.96
2018-09-27T04:04:56.350Z,99421.89
2018-09-27T04:07:25.094Z,99420.23
2018-09-27T04:09:53.728Z,99419.09
2018-09-27T04:12:22.466Z,99418.12
2018-09-27T04:14:51.123Z,99415.73
2018-09-27T04:17:19.753Z,99421.95
2018-09-27T04:19:48.844Z,99422.77
2018-09-27T04:22:17.490Z,99417.33
2018-09-27T04:24:46.178Z,99416.63
2018-09-27T04:27:14.880Z,99415.63
2018-09-27T04:29:43.808Z,99419.36
2018-09-27T04:32:13.209Z,99411.80
2018-09-27T04:34:42.018Z,99413.91
2018-09-27T04:37:10.750Z,99407.77
2018-09-27T04:39:39.460Z,99412.56
2018-09-27T04:42:08.137Z,99413.71
2018-09-27T04:44:36.855Z,99412.37
2018-09-27T04:47:05.703Z,99407.86
2018-09-27T04:49:34.394Z,99415.05
2018-09-27T04:52:03.542Z,99414.94
2018-09-27T04:54:32.306Z,99414.19
2018-09-27T04:57:01.043Z,99413.42
2018-09-27T04:59:29.787Z,99417.33
2018-09-27T05:01:58.534Z,99424.56
2018-09-27T05:04:27.370Z,99431.34
2018-09-27T05:06:56.136Z,99433.22
2018-09-27T05:09:24.875Z,99437.81
2018-09-27T05:11:53.615Z,99435.89
2018-09-27T05:14:22.258Z,99443.89
2018-09-27T05:16:50.952Z,99437.41
2018-09-27T05:19:19.891Z,99437.89
2018-09-27T05:21:48.651Z,99446.38
2018-09-27T05:24:17.345Z,99441.83
2018-09-27T07:55:40.243Z,99407.31
2018-09-27T07:58:09.536Z,99400.91
2018-09-27T08:00:38.596Z,99400.66
2018-09-27T08:03:07.313Z,99399.58
2018-09-27T08:05:35.993Z,99398.50
2018-09-27T08:08:04.675Z,99387.69
2018-09-27T08:10:33.490Z,99387.67
2018-09-27T08:13:02.273Z,99387.66
2018-09-27T08:15:31.161Z,99385.17
2018-09-27T08:17:59.842Z,99391.12
2018-09-27T08:20:28.819Z,99392.17
2018-09-27T08:22:57.850Z,99388.89
2018-09-27T08:25:26.509Z,99386.43
2018-09-27T08:27:55.193Z,99382.31
2018-09-27T08:30:24.110Z,99384.72
2018-09-27T08:32:53.007Z,99381.92
2018-09-27T08:35:22.113Z,99379.89
2018-09-27T08:37:50.834Z,99372.98
2018-09-27T08:40:19.538Z,99376.19
2018-09-27T08:42:48.445Z,99373.42
2018-09-27T08:45:17.433Z,99374.45
2018-09-27T08:47:46.061Z,99376.27
2018-09-27T08:50:14.942Z,99370.91
2018-09-27T08:52:43.617Z,99374.28
2018-09-27T08:55:12.345Z,99373.66
2018-09-27T08:57:41.085Z,99366.77
2018-09-27T09:00:09.932Z,99366.28
2018-09-27T09:02:38.596Z,99363.26
2018-09-27T09:05:07.368Z,99359.31
2018-09-27T09:07:36.163Z,99353.28
2018-09-27T09:10:05.225Z,99358.58
2018-09-27T09:12:33.902Z,99359.93
2018-09-27T09:15:02.562Z,99353.77
2018-09-27T09:17:31.422Z,99348.83
2018-09-27T09:20:00.192Z,99346.20
2018-09-27T09:22:29.066Z,99348.30
2018-09-27T09:24:58.078Z,99342.28
2018-09-27T09:27:26.813Z,99332.33
2018-09-27T09:29:55.578Z,99335.94
2018-09-27T09:32:24.564Z,99332.77
2018-09-27T09:34:53.357Z,99331.78
2018-09-27T09:37:22.141Z,99326.38
2018-09-27T09:39:51.098Z,99328.23
2018-09-27T09:42:19.957Z,99320.04
2018-09-27T09:44:48.657Z,99317.37
2018-09-27T09:47:17.457Z,99317.06
2018-09-27T09:49:46.277Z,99314.25
2018-09-27T09:52:15.054Z,99309.52
2018-09-27T09:54:43.825Z,99304.50
2018-09-27T09:57:12.543Z,99308.98
2018-09-27T09:59:41.281Z,99300.58
2018-09-27T10:02:10.274Z,99294.99
2018-09-27T10:04:38.982Z,99290.69
2018-09-27T10:07:07.751Z,99296.22
2018-09-27T10:09:36.470Z,99297.27
2018-09-27T10:12:05.151Z,99289.25
2018-09-27T10:14:33.854Z,99283.53
2018-09-27T10:17:02.517Z,99281.05
2018-09-27T10:19:31.149Z,99272.42
2018-09-27T10:22:00.073Z,99270.93
2018-09-27T10:24:28.694Z,99263.73
2018-09-27T10:26:57.406Z,99259.00
2018-09-27T10:29:26.033Z,99256.03
2018-09-27T10:31:54.721Z,99259.00
2018-09-27T10:34:23.425Z,99257.62
2018-09-27T10:36:52.166Z,99256.23
2018-09-27T10:39:20.913Z,99252.02
2018-09-27T10:41:49.601Z,99252.25
2018-09-27T10:44:18.685Z,99246.41
2018-09-27T10:46:47.613Z,99246.45
2018-09-27T10:49:16.270Z,99244.55
2018-09-27T10:51:44.976Z,99239.67
2018-09-27T10:54:14.148Z,99240.66
2018-09-27T10:56:43.167Z,99229.28
2018-09-27T10:59:12.073Z,99228.28
2018-09-27T11:01:40.801Z,99230.80
2018-09-27T11:04:09.765Z,99220.12
2018-09-27T11:06:38.480Z,99225.27
2018-09-27T11:09:09.252Z,99222.44
2018-09-27T11:11:38.473Z,99215.52
2018-09-27T11:14:07.307Z,99214.00
2018-09-27T11:16:36.069Z,99216.02
2018-09-27T11:19:04.948Z,99209.83
2018-09-27T11:21:33.795Z,99205.24
2018-09-27T11:24:02.729Z,99199.36
2018-09-27T11:26:31.466Z,99193.82
2018-09-27T11:29:05.413Z,99189.50
2018-09-27T11:31:39.296Z,99181.17
2018-09-27T11:34:08.408Z,99181.33
2018-09-27T11:36:37.104Z,99177.71
2018-09-27T11:39:08.122Z,99167.82
2018-09-27T11:41:37.250Z,99159.84
2018-09-27T11:44:06.270Z,99155.35
2018-09-27T11:46:35.213Z,99147.60
2018-09-27T11:49:04.224Z,99143.61
2018-09-27T11:51:32.937Z,99142.23
2018-09-27T11:54:01.762Z,99138.75
2018-09-27T11:56:30.459Z,99135.03
2018-09-27T11:58:59.353Z,99120.19
2018-09-27T12:01:28.291Z,99114.20
2018-09-27T12:03:57.119Z,99113.67
2018-09-27T12:06:25.843Z,99112.44
2018-09-27T12:08:54.778Z,99111.23
2018-09-27T12:11:23.549Z,99100.70
2018-09-27T12:13:52.369Z,99098.04
2018-09-27T12:16:21.231Z,99089.91
2018-09-27T12:18:49.966Z,99085.16
2018-09-27T12:21:18.652Z,99079.93
2018-09-27T12:23:47.381Z,99073.56
2018-09-27T12:26:16.095Z,99069.13
2018-09-27T12:28:44.848Z,99051.95
2018-09-27T12:31:13.470Z,99053.02
2018-09-27T12:33:42.409Z,99051.01
2018-09-27T12:36:11.306Z,99038.98
2018-09-27T12:38:40.043Z,99030.53
2018-09-27T12:41:08.793Z,99037.23
2018-09-27T12:43:37.556Z,99027.33
2018-09-27T12:46:06.585Z,99024.76
2018-09-27T12:48:35.496Z,99021.41
2018-09-27T12:51:04.745Z,99018.63
2018-09-27T12:53:33.602Z,99012.95
2018-09-27T12:56:02.405Z,99003.98
2018-09-27T12:58:31.527Z,98994.10
2018-09-27T13:01:00.299Z,98989.68
2018-09-27T13:03:28.962Z,98985.35
2018-09-27T13:05:57.854Z,98979.02
2018-09-27T13:08:26.535Z,98974.81
2018-09-27T13:10:55.377Z,98973.62
2018-09-27T13:13:24.394Z,98966.41
2018-09-27T13:15:53.091Z,98960.08
2018-09-27T13:18:21.860Z,98951.58
2018-09-27T13:20:50.546Z,98947.30
2018-09-27T13:23:19.268Z,98940.23
2018-09-27T13:25:48.057Z,98937.50
2018-09-27T13:28:16.777Z,98929.02
2018-09-27T13:30:45.826Z,98922.77
2018-09-27T13:33:14.556Z,98927.39
2018-09-27T13:35:43.230Z,98920.56
2018-09-27T13:38:11.970Z,98918.86
2018-09-27T13:40:40.758Z,98911.34
2018-09-27T13:43:09.591Z,98905.94
2018-09-27T13:45:38.225Z,98891.56
2018-09-27T13:48:06.995Z,98892.25
2018-09-27T13:50:36.807Z,98892.07
2018-09-27T13:53:05.610Z,98879.85
2018-09-27T13:55:34.654Z,98870.68
2018-09-27T13:58:03.495Z,98875.22
2018-09-27T14:00:32.225Z,98874.44
2018-09-27T14:03:00.988Z,98870.14
2018-09-27T14:05:29.748Z,98872.25
2018-09-27T14:07:58.569Z,98872.58
2018-09-27T14:10:27.212Z,98865.32
2018-09-27T14:12:55.868Z,98867.17
2018-09-27T14:15:24.731Z,98858.89
2018-09-27T14:17:53.532Z,98857.18
2018-09-27T14:20:22.422Z,98855.56
2018-09-27T14:22:51.221Z,98858.66
2018-09-27T14:25:20.066Z,98855.66
2018-09-27T14:27:48.769Z,98859.41
2018-09-27T14:30:17.460Z,98854.65
2018-09-27T14:32:46.340Z,98850.36
2018-09-27T14:35:15.145Z,98844.45
2018-09-27T14:37:43.885Z,98848.59
2018-09-27T14:40:12.830Z,98845.05
2018-09-27T14:42:41.740Z,98836.67
2018-09-27T14:45:10.521Z,98835.23
2018-09-27T14:47:39.257Z,98829.48
2018-09-27T14:50:08.088Z,98835.52
2018-09-27T14:52:36.908Z,98825.85
2018-09-27T14:55:05.779Z,98831.94
2018-09-27T14:57:34.470Z,98828.14
2018-09-27T15:00:03.165Z,98820.78
2018-09-27T15:02:31.963Z,98825.76
2018-09-27T15:05:00.643Z,98819.02
2018-09-27T15:07:29.353Z,98816.72
2018-09-27T15:09:58.219Z,98818.14
2018-09-27T15:12:26.884Z,98808.66
2018-09-27T15:14:55.753Z,98816.73
2018-09-27T15:17:24.489Z,98808.53
2018-09-27T15:19:53.264Z,98808.75
2018-09-27T15:22:22.049Z,98802.82
2018-09-27T15:24:50.798Z,98797.14
2018-09-27T15:27:19.436Z,98798.08
2018-09-27T15:29:48.315Z,98788.02
2018-09-27T15:32:16.965Z,98783.44
2018-09-27T15:34:45.652Z,98785.35
2018-09-27T15:37:14.365Z,98777.72
2018-09-27T15:39:43.069Z,98771.17
2018-09-27T15:42:12.047Z,98770.09
2018-09-27T15:44:40.688Z,98771.68
2018-09-27T15:47:09.382Z,98765.31
2018-09-27T15:49:38.205Z,98763.14
2018-09-27T15:52:07.008Z,98761.00
2018-09-27T15:54:35.694Z,98756.26
2018-09-27T15:57:04.429Z,98751.70
2018-09-27T15:59:33.069Z,98752.80
2018-09-27T16:02:01.758Z,98757.21
2018-09-27T16:04:30.491Z,98749.27
2018-09-27T16:06:59.204Z,98748.79
2018-09-27T16:09:28.001Z,98742.61
2018-09-27T16:11:56.708Z,98741.55
2018-09-27T16:14:25.450Z,98739.78
2018-09-27T16:16:54.449Z,98732.50
2018-09-27T16:19:23.278Z,98729.81
2018-09-27T16:21:51.906Z,98730.77
2018-09-27T16:24:20.608Z,98731.64
2018-09-27T16:26:49.313Z,98727.41
2018-09-27T16:29:18.079Z,98730.89
2018-09-27T16:31:46.910Z,98727.73
2018-09-27T16:34:15.607Z,98731.20
2018-09-27T16:36:44.363Z,98728.16
2018-09-27T16:39:13.061Z,98716.52
2018-09-27T16:41:41.886Z,98719.94
2018-09-27T16:44:10.755Z,98715.06
2018-09-27T16:46:39.405Z,98718.73
2018-09-27T16:49:08.322Z,98713.59
2018-09-27T16:51:37.117Z,98714.95
2018-09-27T16:54:06.190Z,98707.77
2018-09-27T16:56:35.960Z,98708.99
2018-09-27T16:59:05.010Z,98703.48
2018-09-27T17:01:33.665Z,98701.77
2018-09-27T17:04:02.448Z,98708.14
2018-09-27T17:06:31.061Z,98705.60
2018-09-27T17:08:59.846Z,98710.91
2018-09-27T17:11:28.674Z,98705.95
2018-09-27T17:13:57.430Z,98704.63
2018-09-27T17:16:26.268Z,98698.07
2018-09-27T17:18:55.034Z,98694.38
2018-09-27T17:21:23.877Z,98699.35
2018-09-27T17:23:52.665Z,98698.85
2018-09-27T17:26:21.421Z,98692.86
2018-09-27T17:28:50.137Z,98688.82
2018-09-27T17:31:18.968Z,98689.84
2018-09-27T17:33:47.843Z,98688.53
2018-09-27T17:36:16.766Z,98694.02
2018-09-27T17:38:45.552Z,98693.01
2018-09-27T17:41:14.342Z,98691.36
2018-09-27T17:43:43.151Z,98687.88
2018-09-27T17:46:12.022Z,98684.39
2018-09-27T17:48:41.201Z,98689.23
2018-09-27T17:51:10.077Z,98693.26
2018-09-27T17:53:38.798Z,98689.86
2018-09-27T17:56:07.671Z,98686.44
2018-09-27T17:58:36.605Z,98692.92
2018-09-27T18:01:05.772Z,98686.07
2018-09-27T18:03:34.546Z,98695.34
2018-09-27T18:06:03.318Z,98685.05
2018-09-27T18:08:32.018Z,98689.06
2018-09-27T18:11:00.733Z,98683.30
2018-09-27T18:13:29.626Z,98684.36
2018-09-27T18:15:58.367Z,98683.33
2018-09-27T18:18:27.322Z,98690.85
2018-09-27T18:20:55.961Z,98681.08
2018-09-27T18:23:24.626Z,98684.84
2018-09-27T18:25:53.460Z,98678.27
2018-09-27T18:28:22.098Z,98680.34
2018-09-27T18:30:50.786Z,98674.50
2018-09-27T18:33:19.547Z,98677.13
2018-09-27T18:35:48.442Z,98671.20
2018-09-27T18:38:17.655Z,98674.25
2018-09-27T18:40:46.262Z,98669.19
2018-09-27T18:43:15.638Z,98670.20
2018-09-27T18:45:44.301Z,98673.72
2018-09-27T18:48:13.025Z,98669.63
2018-09-27T18:50:42.072Z,98671.14
2018-09-27T18:53:10.726Z,98669.36
2018-09-27T18:55:39.430Z,98667.20
2018-09-27T18:58:08.106Z,98666.48
2018-09-27T19:00:36.900Z,98660.28
2018-09-27T19:03:05.818Z,98659.33
2018-09-27T19:05:34.641Z,98651.53
2018-09-27T19:08:03.334Z,98650.58
2018-09-27T19:10:32.374Z,98655.42
2018-09-27T19:13:01.074Z,98650.59
2018-09-27T19:15:29.863Z,98653.08
2018-09-27T19:17:58.634Z,98653.71
2018-09-27T19:20:27.456Z,98654.08
2018-09-27T19:22:56.421Z,98652.12
2018-09-27T19:25:25.105Z,98652.36
2018-09-27T19:27:53.854Z,98648.05
2018-09-27T19:30:22.597Z,98650.41
2018-09-27T19:32:51.491Z,98650.04
2018-09-27T19:35:20.305Z,98643.13
2018-09-27T19:37:48.992Z,98648.68
2018-09-27T19:40:17.638Z,98638.80
2018-09-27T19:42:46.393Z,98647.55
2018-09-27T19:45:15.102Z,98641.39
2018-09-27T19:47:43.906Z,98648.55
2018-09-27T19:50:12.615Z,98641.03
2018-09-27T19:52:41.362Z,98642.38
2018-09-27T19:55:10.198Z,98639.42
2018-09-27T19:57:38.973Z,98638.98
2018-09-27T20:00:07.912Z,98638.02
2018-09-27T20:02:36.682Z,98637.88
2018-09-27T20:05:06.038Z,98636.59
2018-09-27T20:07:34.720Z,98640.53
2018-09-27T20:10:03.644Z,98649.38
2018-09-27T20:12:32.443Z,98648.20
2018-09-27T20:15:01.386Z,98644.48
2018-09-27T20:17:30.226Z,98642.31
2018-09-27T20:19:58.985Z,98640.83
2018-09-27T20:22:27.717Z,98642.84
2018-09-27T20:24:56.467Z,98642.11
2018-09-27T20:27:25.209Z,98638.42
2018-09-27T20:29:53.913Z,98635.05
2018-09-27T20:32:22.661Z,98644.05
2018-09-27T20:34:51.377Z,98639.84
2018-09-27T20:37:20.100Z,98641.58
2018-09-27T20:39:48.823Z,98634.89
2018-09-27T20:42:17.504Z,98641.19
2018-09-27T20:44:46.213Z,98640.70
2018-09-27T20:47:14.990Z,98640.55
2018-09-27T20:49:43.941Z,98639.05
2018-09-27T20:52:12.790Z,98643.45
2018-09-27T20:54:41.469Z,98640.74
2018-09-27T20:57:10.144Z,98636.52
2018-09-27T20:59:39.021Z,98634.52
2018-09-27T21:02:08.089Z,98632.92
2018-09-27T21:04:36.743Z,98632.39
2018-09-27T21:07:05.414Z,98629.56
2018-09-27T21:09:34.168Z,98630.95
2018-09-27T21:12:02.828Z,98628.75
2018-09-27T21:14:31.510Z,98631.80
2018-09-27T21:17:00.171Z,98628.91
2018-09-27T21:19:28.920Z,98627.14
2018-09-27T21:21:57.635Z,98617.43
2018-09-27T21:24:26.337Z,98623.21
2018-09-27T21:26:55.075Z,98618.12
2018-09-27T21:29:23.707Z,98628.30
2018-09-27T21:31:52.441Z,98616.50
2018-09-27T21:34:21.226Z,98615.89
2018-09-27T21:36:49.870Z,98611.91
2018-09-27T21:39:18.718Z,98619.61
2018-09-27T21:41:47.338Z,98610.98
2018-09-27T21:44:16.030Z,98612.16
2018-09-27T21:46:44.769Z,98613.02
2018-09-27T21:49:13.509Z,98609.81
2018-09-27T21:51:42.217Z,98604.47
2018-09-27T21:54:10.893Z,98603.17
2018-09-27T21:56:39.562Z,98602.06
2018-09-27T21:59:08.261Z,98605.06
2018-09-27T22:01:36.935Z,98599.16
2018-09-27T22:04:05.799Z,98592.59
2018-09-27T22:06:34.409Z,98597.45
2018-09-27T22:09:03.187Z,98596.41
2018-09-27T22:11:31.881Z,98594.79
2018-09-27T22:14:00.509Z,98590.05
2018-09-27T22:16:29.339Z,98584.39
2018-09-27T22:18:58.071Z,98584.39
2018-09-27T22:21:26.734Z,98585.56
2018-09-27T22:23:55.448Z,98578.09
2018-09-27T22:26:24.058Z,98579.34
2018-09-27T22:28:52.789Z,98578.54
2018-09-27T22:31:21.582Z,98571.09
2018-09-27T22:33:50.223Z,98573.66
2018-09-27T22:36:18.897Z,98567.70
2018-09-27T22:38:47.665Z,98564.25
2018-09-27T22:41:16.370Z,98561.30
2018-09-27T22:43:45.009Z,98556.73
2018-09-27T22:46:13.654Z,98552.20
2018-09-27T22:48:42.344Z,98551.14
2018-09-27T22:51:10.963Z,98556.00
2018-09-27T22:53:39.941Z,98544.69
2018-09-27T22:56:08.686Z,98548.55
2018-09-27T22:58:37.290Z,98546.44
2018-09-27T23:01:06.133Z,98549.97
2018-09-27T23:03:34.736Z,98546.25
2018-09-27T23:06:03.484Z,98546.91
2018-09-27T23:08:32.113Z,98543.42
2018-09-27T23:11:00.775Z,98545.11
2018-09-27T23:13:29.477Z,98545.41
2018-09-27T23:15:58.148Z,98540.86
2018-09-27T23:18:27.269Z,98534.20
2018-09-27T23:20:55.941Z,98543.97
2018-09-27T23:23:24.574Z,98539.26
2018-09-27T23:25:53.253Z,98536.85
2018-09-27T23:28:21.946Z,98535.00
2018-09-27T23:30:50.724Z,98533.66
2018-09-27T23:33:19.358Z,98530.41
2018-09-27T23:35:48.065Z,98527.41
2018-09-27T23:38:16.893Z,98526.94
2018-09-27T23:40:46.469Z,98525.59
2018-09-27T23:43:15.147Z,98528.59
2018-09-27T23:45:43.941Z,98525.06
2018-09-27T23:48:12.725Z,98520.55
2018-09-27T23:50:41.765Z,98525.19
2018-09-27T23:53:10.510Z,98529.83
2018-09-27T23:55:39.547Z,98534.70
2018-09-27T23:58:08.306Z,98533.09
